Kenwood, CA (95452)

3:52 AM PDT on August 05, 2015 (GMT -0700)
Kenwood Fire | | Change Station
CLOSE
Current Station
Personal Weather Station
Location: Kenwood, CA
Elevation: 415 ft
Nearby Weather Stations

Elev 415 ft 38.42 °N, 122.55 °W | Updated 53 seconds ago

Clear
Clear
56.4 °F
Feels Like 56.4 °F
N
0.0
Wind Variable Wind from West
Gusts 1.0 mph

Today
High -- | Low -- °F
--% Chance of Precip.
Yesterday
High -- | Low -- °F
Precip. -- in
6:15 AM 8:16 PM
Waning Gibbous, 68% visible
Pressure 30.03 in
Visibility 8.0 miles
Clouds Scattered Clouds 9000 ft
Dew Point 53 °F
Humidity 89%
Rainfall 0.00 in
Snow Depth Not available.
UV 0.0 out of 12
Pollen 4.90 out of 12
Air Quality Not available.
Flu Activity Not available.
METAR KO69 051035Z AUTO 26003KT 8SM SCT090 13/13 A3003 RMK AO1

More Conditions Fewer Conditions

Pressure 30.03 in
Visibility 8.0 miles
Clouds Scattered Clouds 9000 ft
Dew Point 53 °F
Humidity 89%
Rainfall 0.00 in
Snow Depth Not available.
UV 0.0 out of 12
Pollen 4.90 out of 12
Air Quality Not available.
Flu Activity Not available.
METAR KO69 051035Z AUTO 26003KT 8SM SCT090 13/13 A3003 RMK AO1

More Conditions Fewer Conditions

10-Day Weather Forecast

×

Almanac

Astronomy

Aug. 05, 2015 Rise Set
Actual Time
Civil Twilight
Nautical Twilight
Astronomical Twilight
Moon
Length of Visible Light
Length of Day
Tomorrow will be .
, % of the Moon is Illuminated

Today's Extremes

State Highs State Lows

Community

WunderPhotos

Upload Photos

1,844,115 photos uploaded!

WunderBlogs® & News

Nearby

Air Quality

  Air Quality AQ Index Pollutant
Not available.

Snow Depth

Station Depth Elevation

Earthquake Activity

City Distance Mag. Time & Date
Minimum magnitude displayed is 2.5.

Coastal Water Temperatures

Place Temperature

Stations

Nearby Weather Stations

Station Location Temp. Windchill Dew Point Humidity Wind Precip. Elev Updated Type